PST,Max TemperatureF,Mean TemperatureF,Min TemperatureF,Max Dew PointF,MeanDew PointF,Min DewpointF,Max Humidity, Mean Humidity, Min Humidity, Max Sea Level PressureIn, Mean Sea Level PressureIn, Min Sea Level PressureIn, Max VisibilityMiles, Mean VisibilityMiles, Min VisibilityMiles, Max Wind SpeedMPH, Mean Wind SpeedMPH, Max Gust SpeedMPH,PrecipitationIn, CloudCover, Events, WindDirDegrees
2012-11-1,89,70,51,36,28,21,39,22,12,29.94,29.87,29.81,10,10,10,9,5,,0.00,0,,222
2012-11-2,87,72,57,38,32,28,34,24,16,29.93,29.87,29.83,10,10,10,8,2,,0.00,0,,323
2012-11-3,88,72,57,37,30,26,32,23,11,30.02,29.97,29.91,10,10,10,9,4,,0.00,0,,297
2012-11-4,91,73,55,37,26,23,32,20,9,30.10,30.04,30.00,10,10,10,8,3,,0.00,0,,308
2012-11-5,91,75,59,35,28,22,25,19,12,30.10,30.03,29.97,10,10,10,10,3,16,0.00,0,,197
2012-11-6,89,73,57,40,32,25,30,24,15,30.07,29.99,29.93,10,10,10,7,3,,0.00,0,,282
2012-11-7,87,70,53,43,36,28,40,29,19,30.00,29.90,29.83,10,10,10,6,2,,0.00,0,,157
2012-11-8,78,68,57,54,44,33,56,42,26,29.86,29.79,29.75,10,10,5,14,5,,0.00,3,Rain,208
2012-11-9,72,64,55,50,40,29,64,43,26,29.86,29.77,29.73,10,9,5,30,15,37,0.00,2,,228
2012-11-10,64,54,45,31,26,18,53,35,21,30.12,29.98,29.87,10,10,10,14,4,21,0.00,1,,288
2012-11-11,64,52,41,22,16,10,41,25,14,30.35,30.27,30.14,10,10,10,13,7,21,0.00,0,,329
2012-11-12,69,55,41,12,10,7,28,17,10,30.34,30.24,30.15,10,10,10,15,6,,0.00,0,,323
2012-11-13,75,58,41,22,9,5,24,15,7,30.22,30.13,30.06,10,10,10,10,3,21,0.00,0,,287
2012-11-14,78,62,45,18,10,5,21,14,8,30.13,30.06,29.99,10,10,10,9,5,,0.00,0,,297
2012-11-15,68,60,51,32,20,11,33,22,12,30.12,30.06,30.02,10,10,10,8,3,,0.00,0,,247
2012-11-16,78,63,48,42,29,16,45,28,16,30.09,30.02,29.97,10,10,10,7,3,,0.00,2,,247
2012-11-17,78,66,54,48,42,34,60,41,30,30.05,30.00,29.96,10,10,10,17,5,24,0.00,1,,222
2012-11-18,77,64,50,48,42,35,74,50,27,30.09,30.04,29.99,10,10,10,10,4,,0.00,0,,278
2012-11-19,75,62,48,45,38,33,64,45,24,30.21,30.14,30.10,10,10,10,7,4,,0.00,0,,327
2012-11-20,79,64,48,41,36,32,59,41,22,30.15,30.07,29.98,10,10,10,6,3,,0.00,0,,298
2012-11-21,77,62,46,40,35,30,52,39,23,30.06,29.99,29.94,10,10,10,7,3,,0.00,0,,335
2012-11-22,80,63,46,41,34,28,50,36,20,30.12,30.06,29.99,10,10,10,9,3,,0.00,0,,318
2012-11-23,82,66,50,36,30,27,45,29,14,30.20,30.12,30.08,10,10,10,12,3,,0.00,0,,313
2012-11-24,84,68,53,35,26,22,34,24,12,30.12,30.02,29.92,10,10,10,8,4,,0.00,0,,286
2012-11-25,80,64,48,31,25,22,35,25,17,29.94,29.88,29.80,10,10,10,7,2,,0.00,0,,346
2012-11-26,79,64,50,33,27,22,36,27,16,30.08,29.99,29.88,10,10,5,8,3,,0.00,0,,8
2012-11-27,81,66,50,37,26,22,36,25,13,30.15,30.07,30.01,10,10,10,7,3,,0.00,0,,334
2012-11-28,78,62,46,43,31,19,55,33,18,30.14,30.07,30.01,10,10,10,8,3,,0.00,0,,140
2012-11-29,79,65,51,52,45,38,64,49,36,30.14,30.08,30.01,10,10,10,9,3,,0.00,0,,294
2012-11-30,79,66,52,55,49,43,77,56,36,30.09,30.04,29.99,10,10,10,13,5,16,0.00,0,,257